Terminal Aerodrome Forecast
Issued by NWS

Home | Current Version | Previous Version | Text Only | Print | Product List | Glossary On
Versions: 1 2 3 4 5 6 7 8 9 10 11 12 13 14 15 16 17 18 19 20 21 22 23 24 25
829
FTUS41 KCAR 250520
TAFBHB
TAF
KBHB 250520Z 2506/2606 VRB03KT P6SM SCT200
      TEMPO 2508/2510 3SM BR SCT003
     FM251200 11010KT P6SM SCT040
     FM251800 14010KT P6SM OVC040
     FM252100 14010KT 5SM -RA BR OVC020
     FM260000 12012KT 3SM -RA BR OVC005=

USA.gov is the U.S. government's official web portal to all federal, state and local government web resources and services.